Time;durP1;ratioP1;P1;durP2;ratioP2;P2;SDS_P1;SDS_P2;PMS_P1;PMS_P2;Temp;Humidity;BMP_temperature;BMP_pressure;BME280_temperature;BME280_humidity;BME280_pressure;Samples;Min_cycle;Max_cycle;Signal;HPM_P1;HPM_P2
2023/03/19 00:00:38;;;;;;;6.18;4.43;;;;;;;;;;5036700;28;20037;-66
2023/03/19 00:03:03;;;;;;;7.90;4.88;;;;;;;;;;5039285;28;20025;-66
2023/03/19 00:05:29;;;;;;;10.32;5.18;;;;;;;;;;5037423;28;20055;-66
2023/03/19 00:07:54;;;;;;;6.13;4.85;;;;;;;;;;5032863;28;20629;-66
2023/03/19 00:10:20;;;;;;;9.27;5.90;;;;;;;;;;5037191;28;20036;-66
2023/03/19 00:12:46;;;;;;;7.57;5.32;;;;;;;;;;5045491;28;20048;-66
2023/03/19 00:15:13;;;;;;;11.10;6.65;;;;;;;;;;5053382;28;20033;-66
2023/03/19 00:17:38;;;;;;;7.18;5.72;;;;;;;;;;5048164;28;20032;-66
2023/03/19 00:20:04;;;;;;;10.77;6.35;;;;;;;;;;5046631;28;20029;-66
2023/03/19 00:22:29;;;;;;;11.27;6.90;;;;;;;;;;5040218;28;20071;-66
2023/03/19 00:24:55;;;;;;;11.43;6.93;;;;;;;;;;5024546;28;20039;-66
2023/03/19 00:27:20;;;;;;;9.55;6.72;;;;;;;;;;5045112;28;20031;-66
2023/03/19 00:29:45;;;;;;;8.00;6.07;;;;;;;;;;5039281;28;20564;-66
2023/03/19 00:32:10;;;;;;;7.90;6.45;;;;;;;;;;5040857;28;20065;-66
2023/03/19 00:34:36;;;;;;;10.77;6.22;;;;;;;;;;5037948;28;20388;-66
2023/03/19 00:37:01;;;;;;;7.88;6.38;;;;;;;;;;5046147;28;20068;-66
2023/03/19 00:39:26;;;;;;;9.00;6.35;;;;;;;;;;5048703;28;20091;-66
2023/03/19 00:41:52;;;;;;;10.15;6.63;;;;;;;;;;5038022;28;20105;-66
2023/03/19 00:44:18;;;;;;;12.07;7.03;;;;;;;;;;5034918;28;20022;-66
2023/03/19 00:46:43;;;;;;;9.43;7.25;;;;;;;;;;5038331;28;20068;-66
2023/03/19 00:49:08;;;;;;;11.30;7.13;;;;;;;;;;5039460;28;20025;-66
2023/03/19 00:51:33;;;;;;;12.90;7.03;;;;;;;;;;5039024;28;20033;-66
2023/03/19 00:53:59;;;;;;;11.13;7.13;;;;;;;;;;5041991;28;20041;-66
2023/03/19 00:56:24;;;;;;;10.60;7.85;;;;;;;;;;5038814;28;20043;-66
2023/03/19 00:58:49;;;;;;;10.48;7.72;;;;;;;;;;5041431;28;20029;-66
2023/03/19 01:01:16;;;;;;;10.07;6.72;;;;;;;;;;5050990;28;20468;-66
2023/03/19 01:03:42;;;;;;;10.93;8.05;;;;;;;;;;5035581;28;20026;-66
2023/03/19 01:06:07;;;;;;;11.10;7.30;;;;;;;;;;5035895;28;20495;-66
2023/03/19 01:08:32;;;;;;;9.90;6.72;;;;;;;;;;5051082;28;20159;-66
2023/03/19 01:11:05;;;;;;;9.23;7.28;;;;;;;;;;5049793;28;20342;-66
2023/03/19 01:13:31;;;;;;;7.35;5.93;;;;;;;;;;5032750;28;20021;-65
2023/03/19 01:15:56;;;;;;;9.50;6.50;;;;;;;;;;5037904;28;20029;-65
2023/03/19 01:18:21;;;;;;;9.13;6.30;;;;;;;;;;5042272;28;20022;-65
2023/03/19 01:20:47;;;;;;;8.57;6.63;;;;;;;;;;5047799;28;20039;-66
2023/03/19 01:23:12;;;;;;;9.88;6.80;;;;;;;;;;5043988;28;20140;-66
2023/03/19 01:25:38;;;;;;;8.40;6.28;;;;;;;;;;5026908;28;20209;-65
2023/03/19 01:28:03;;;;;;;11.25;6.20;;;;;;;;;;5038108;28;20101;-65
2023/03/19 01:30:29;;;;;;;15.57;6.20;;;;;;;;;;5033529;28;20056;-65
2023/03/19 01:32:54;;;;;;;7.97;6.10;;;;;;;;;;5031152;28;20034;-65
2023/03/19 01:35:19;;;;;;;13.77;7.15;;;;;;;;;;5048290;28;20025;-66
2023/03/19 01:37:45;;;;;;;7.82;5.75;;;;;;;;;;5052558;28;20024;-66
2023/03/19 01:40:12;;;;;;;10.73;7.10;;;;;;;;;;5051046;28;20021;-65
2023/03/19 01:42:53;;;;;;;10.27;7.13;;;;;;;;;;5052064;28;20399;-65
2023/03/19 01:45:32;;;;;;;14.88;6.82;;;;;;;;;;5050936;28;20012;-65
2023/03/19 01:47:57;;;;;;;11.20;7.20;;;;;;;;;;5050665;28;20033;-66
2023/03/19 01:50:26;;;;;;;9.20;7.20;;;;;;;;;;5050891;28;20490;-65
2023/03/19 01:52:51;;;;;;;10.82;6.70;;;;;;;;;;5050693;28;20483;-65
2023/03/19 01:55:16;;;;;;;9.93;7.15;;;;;;;;;;5051435;28;20032;-65
2023/03/19 01:57:41;;;;;;;8.95;6.43;;;;;;;;;;5050214;28;20079;-65
2023/03/19 02:00:07;;;;;;;8.93;7.05;;;;;;;;;;5049704;28;20063;-65
2023/03/19 02:02:33;;;;;;;14.57;7.28;;;;;;;;;;5050765;28;20104;-65
2023/03/19 02:05:02;;;;;;;10.73;7.05;;;;;;;;;;5050461;28;20017;-65
2023/03/19 02:07:32;;;;;;;16.38;8.00;;;;;;;;;;5051282;28;20071;-65
2023/03/19 02:09:58;;;;;;;13.60;7.43;;;;;;;;;;5052352;28;20017;-65
2023/03/19 02:12:24;;;;;;;9.90;6.57;;;;;;;;;;5050489;28;20033;-65
2023/03/19 02:14:49;;;;;;;12.30;7.47;;;;;;;;;;5037384;28;20028;-65
2023/03/19 02:17:15;;;;;;;15.13;6.55;;;;;;;;;;5048749;28;20033;-65
2023/03/19 02:19:40;;;;;;;9.38;6.78;;;;;;;;;;5044069;28;20159;-65
2023/03/19 02:22:06;;;;;;;12.07;7.05;;;;;;;;;;5027579;28;20072;-66
2023/03/19 02:24:32;;;;;;;9.32;6.32;;;;;;;;;;5030905;28;20460;-65
2023/03/19 02:26:58;;;;;;;9.20;7.22;;;;;;;;;;5033714;28;20468;-65
2023/03/19 02:29:23;;;;;;;13.93;7.57;;;;;;;;;;5033274;28;20014;-65
2023/03/19 02:31:49;;;;;;;10.77;7.05;;;;;;;;;;5028429;28;20033;-66
2023/03/19 02:34:20;;;;;;;8.38;6.53;;;;;;;;;;5031699;28;20112;-66
2023/03/19 02:36:57;;;;;;;10.88;7.30;;;;;;;;;;5043189;28;20025;-65
2023/03/19 02:39:37;;;;;;;14.65;6.97;;;;;;;;;;5024202;28;20037;-65
2023/03/19 02:42:02;;;;;;;14.80;7.30;;;;;;;;;;5026235;28;20881;-66
2023/03/19 02:44:27;;;;;;;11.10;6.70;;;;;;;;;;5029777;28;20848;-66
2023/03/19 02:46:53;;;;;;;10.15;6.60;;;;;;;;;;5044771;28;20032;-65
2023/03/19 02:49:19;;;;;;;8.02;5.93;;;;;;;;;;5042026;28;20021;-66
2023/03/19 02:51:44;;;;;;;8.20;5.47;;;;;;;;;;5031381;28;20091;-65
2023/03/19 02:54:09;;;;;;;7.20;5.90;;;;;;;;;;5030000;28;20025;-65
2023/03/19 02:56:35;;;;;;;8.38;6.07;;;;;;;;;;5035399;28;20028;-66
2023/03/19 02:59:00;;;;;;;8.57;5.78;;;;;;;;;;5036305;28;20024;-66
2023/03/19 03:01:26;;;;;;;6.82;5.30;;;;;;;;;;5051004;28;20017;-66
2023/03/19 03:03:51;;;;;;;10.88;6.45;;;;;;;;;;5052734;28;20024;-65
2023/03/19 03:06:16;;;;;;;8.50;6.10;;;;;;;;;;5049195;28;20029;-65
2023/03/19 03:08:42;;;;;;;8.77;6.05;;;;;;;;;;5043156;28;20033;-66
2023/03/19 03:11:08;;;;;;;9.13;6.50;;;;;;;;;;5045948;28;20060;-66
2023/03/19 03:13:33;;;;;;;9.98;6.40;;;;;;;;;;5043828;28;20379;-66
2023/03/19 03:15:58;;;;;;;8.88;5.90;;;;;;;;;;5044391;28;20115;-66
2023/03/19 03:18:23;;;;;;;7.53;6.13;;;;;;;;;;5045901;28;20033;-66
2023/03/19 03:20:49;;;;;;;8.05;5.80;;;;;;;;;;5046726;28;20396;-66
2023/03/19 03:23:14;;;;;;;7.93;6.43;;;;;;;;;;5045565;28;20079;-66
2023/03/19 03:25:40;;;;;;;8.32;6.35;;;;;;;;;;5042266;28;20033;-66
2023/03/19 03:28:05;;;;;;;9.10;6.57;;;;;;;;;;5038789;28;20040;-66
2023/03/19 03:30:31;;;;;;;8.20;6.28;;;;;;;;;;5044426;28;20471;-66
2023/03/19 03:32:57;;;;;;;8.18;5.97;;;;;;;;;;5043151;28;20036;-65
2023/03/19 03:35:22;;;;;;;10.07;6.90;;;;;;;;;;5045307;28;20029;-65
2023/03/19 03:37:48;;;;;;;8.02;6.05;;;;;;;;;;5035091;28;20029;-65
2023/03/19 03:40:15;;;;;;;10.40;6.72;;;;;;;;;;5040914;28;20028;-65
2023/03/19 03:42:40;;;;;;;9.90;7.35;;;;;;;;;;5045494;28;20040;-65
2023/03/19 03:45:06;;;;;;;7.53;6.15;;;;;;;;;;5032277;28;20025;-65
2023/03/19 03:47:31;;;;;;;10.95;7.15;;;;;;;;;;5035710;28;20045;-65
2023/03/19 03:49:56;;;;;;;8.70;6.75;;;;;;;;;;5039591;28;20070;-65
2023/03/19 03:52:22;;;;;;;15.70;7.60;;;;;;;;;;5048593;28;20031;-66
2023/03/19 03:54:48;;;;;;;9.18;6.75;;;;;;;;;;5041958;28;20029;-65
2023/03/19 03:57:13;;;;;;;12.02;7.97;;;;;;;;;;5045134;28;20009;-65
2023/03/19 03:59:38;;;;;;;12.75;7.93;;;;;;;;;;5042324;28;20126;-65
2023/03/19 04:02:05;;;;;;;9.63;8.45;;;;;;;;;;5046295;28;20027;-66
2023/03/19 04:04:30;;;;;;;19.13;8.55;;;;;;;;;;5042007;28;20030;-65
2023/03/19 04:06:56;;;;;;;12.15;8.15;;;;;;;;;;5041411;28;20070;-65
2023/03/19 04:09:21;;;;;;;16.40;9.30;;;;;;;;;;5040746;28;20145;-65
2023/03/19 04:11:47;;;;;;;13.40;9.73;;;;;;;;;;5042409;28;20691;-65
2023/03/19 04:14:13;;;;;;;11.65;9.13;;;;;;;;;;5042560;28;20037;-65
2023/03/19 04:16:38;;;;;;;11.68;9.52;;;;;;;;;;5043810;28;20501;-65
2023/03/19 04:19:04;;;;;;;13.88;9.75;;;;;;;;;;5042957;28;20036;-65
2023/03/19 04:21:29;;;;;;;10.52;9.25;;;;;;;;;;5050416;28;20024;-65
2023/03/19 04:23:55;;;;;;;11.02;9.25;;;;;;;;;;5048590;28;20029;-65
2023/03/19 04:26:20;;;;;;;11.15;9.35;;;;;;;;;;5048026;28;20023;-65
2023/03/19 04:28:45;;;;;;;10.95;9.32;;;;;;;;;;5052389;28;20562;-65
2023/03/19 04:31:11;;;;;;;12.77;9.95;;;;;;;;;;5052039;28;20380;-65
2023/03/19 04:33:36;;;;;;;13.90;9.48;;;;;;;;;;5047818;28;20796;-65
2023/03/19 04:36:02;;;;;;;13.55;10.27;;;;;;;;;;5043622;28;20470;-65
2023/03/19 04:38:28;;;;;;;12.07;10.82;;;;;;;;;;5043553;28;20100;-65
2023/03/19 04:40:53;;;;;;;12.73;10.18;;;;;;;;;;5044199;28;20032;-65
2023/03/19 04:43:19;;;;;;;13.00;11.13;;;;;;;;;;5041173;28;20852;-65
2023/03/19 04:45:44;;;;;;;12.88;11.20;;;;;;;;;;5047485;28;20058;-65
2023/03/19 04:48:09;;;;;;;13.60;10.90;;;;;;;;;;5045849;28;20410;-65
2023/03/19 04:50:35;;;;;;;14.70;11.07;;;;;;;;;;5044672;28;20116;-65
2023/03/19 04:53:01;;;;;;;13.45;11.30;;;;;;;;;;5035099;28;20024;-65
2023/03/19 04:55:26;;;;;;;13.38;11.88;;;;;;;;;;5031763;28;20115;-65
2023/03/19 04:57:52;;;;;;;14.18;11.27;;;;;;;;;;5044796;28;20258;-65
2023/03/19 05:00:17;;;;;;;18.85;12.23;;;;;;;;;;5046583;28;20110;-65
2023/03/19 05:02:42;;;;;;;14.15;12.57;;;;;;;;;;5045942;28;20629;-65
2023/03/19 05:05:10;;;;;;;13.70;12.30;;;;;;;;;;5050779;28;20036;-65
2023/03/19 05:07:35;;;;;;;16.48;12.27;;;;;;;;;;5050488;28;21487;-65
2023/03/19 05:10:01;;;;;;;14.75;11.30;;;;;;;;;;5049837;28;20108;-65
2023/03/19 05:12:27;;;;;;;16.85;12.45;;;;;;;;;;5051055;28;20021;-65
2023/03/19 05:14:52;;;;;;;18.10;12.90;;;;;;;;;;5050750;28;20124;-65
2023/03/19 05:17:17;;;;;;;13.57;11.98;;;;;;;;;;5050871;28;20407;-65
2023/03/19 05:19:43;;;;;;;13.38;12.07;;;;;;;;;;5046635;28;20029;-65
2023/03/19 05:22:08;;;;;;;14.05;11.65;;;;;;;;;;5051367;28;20028;-65
2023/03/19 05:24:34;;;;;;;14.73;12.07;;;;;;;;;;5045221;28;20104;-65
2023/03/19 05:26:59;;;;;;;18.52;12.73;;;;;;;;;;5047532;28;20024;-65
2023/03/19 05:29:25;;;;;;;17.95;12.63;;;;;;;;;;5050746;28;20024;-65
2023/03/19 05:31:50;;;;;;;18.65;13.63;;;;;;;;;;5050560;28;20036;-65
2023/03/19 05:34:16;;;;;;;20.08;13.68;;;;;;;;;;5049396;28;20017;-65
2023/03/19 05:36:41;;;;;;;15.88;13.20;;;;;;;;;;5049101;28;20465;-65
2023/03/19 05:39:06;;;;;;;17.63;15.75;;;;;;;;;;5048714;28;20480;-65
2023/03/19 05:41:32;;;;;;;16.95;13.68;;;;;;;;;;5049254;28;20036;-65
2023/03/19 05:43:57;;;;;;;15.95;13.95;;;;;;;;;;5043365;28;20487;-65
2023/03/19 05:46:23;;;;;;;22.30;15.68;;;;;;;;;;5047483;28;20426;-65
2023/03/19 05:48:48;;;;;;;19.23;15.32;;;;;;;;;;5042744;28;20079;-65
2023/03/19 05:51:13;;;;;;;17.33;14.52;;;;;;;;;;5048566;28;20057;-65
2023/03/19 05:53:39;;;;;;;16.60;14.38;;;;;;;;;;5047440;28;20487;-65
2023/03/19 05:56:04;;;;;;;17.30;15.05;;;;;;;;;;5051450;28;20108;-65
2023/03/19 05:58:29;;;;;;;16.48;14.65;;;;;;;;;;5049148;28;20417;-65
2023/03/19 06:00:55;;;;;;;16.35;14.30;;;;;;;;;;5048133;28;20868;-65
2023/03/19 06:03:21;;;;;;;17.67;14.63;;;;;;;;;;5043653;28;20026;-65
2023/03/19 06:05:47;;;;;;;19.15;15.57;;;;;;;;;;5042662;28;20079;-65
2023/03/19 06:08:13;;;;;;;20.45;16.17;;;;;;;;;;5046727;28;20033;-65
2023/03/19 06:10:38;;;;;;;20.02;15.55;;;;;;;;;;5046205;28;20090;-65
2023/03/19 06:13:04;;;;;;;19.88;16.50;;;;;;;;;;5046781;28;20498;-65
2023/03/19 06:15:30;;;;;;;16.90;15.07;;;;;;;;;;5047412;28;20039;-65
2023/03/19 06:17:55;;;;;;;20.85;16.77;;;;;;;;;;5037281;28;20082;-65
2023/03/19 06:20:20;;;;;;;18.63;16.63;;;;;;;;;;5051721;28;20774;-65
2023/03/19 06:22:46;;;;;;;20.45;16.13;;;;;;;;;;5053897;28;20025;-66
2023/03/19 06:25:11;;;;;;;20.75;17.02;;;;;;;;;;5055675;28;20170;-65
2023/03/19 06:27:37;;;;;;;21.50;17.33;;;;;;;;;;5054899;28;20430;-65
2023/03/19 06:30:02;;;;;;;20.90;16.15;;;;;;;;;;5057461;28;20460;-65
2023/03/19 06:32:27;;;;;;;17.77;15.65;;;;;;;;;;5055578;28;20024;-65
2023/03/19 06:34:55;;;;;;;19.08;16.58;;;;;;;;;;5056078;28;20051;-65
2023/03/19 06:37:20;;;;;;;19.90;16.83;;;;;;;;;;5054322;28;20471;-65
2023/03/19 06:39:46;;;;;;;19.95;16.15;;;;;;;;;;5047696;28;20120;-65
2023/03/19 06:42:18;;;;;;;17.75;15.45;;;;;;;;;;5042644;28;20053;-65
2023/03/19 06:44:43;;;;;;;22.20;17.08;;;;;;;;;;5038626;28;20052;-65
2023/03/19 06:47:09;;;;;;;21.13;16.77;;;;;;;;;;5041417;28;20441;-65
2023/03/19 06:49:34;;;;;;;18.98;15.70;;;;;;;;;;5045857;28;20037;-68
2023/03/19 06:52:00;;;;;;;19.17;16.10;;;;;;;;;;5039380;28;20034;-66
2023/03/19 06:54:26;;;;;;;18.00;16.08;;;;;;;;;;5040021;28;20056;-65
2023/03/19 06:56:51;;;;;;;17.95;15.98;;;;;;;;;;5054122;28;20063;-65
2023/03/19 06:59:16;;;;;;;18.25;15.13;;;;;;;;;;5046833;28;20031;-65
2023/03/19 07:01:42;;;;;;;18.20;15.80;;;;;;;;;;5044644;28;20044;-65
2023/03/19 07:04:07;;;;;;;23.80;15.80;;;;;;;;;;5040696;28;20025;-65
2023/03/19 07:06:33;;;;;;;20.83;17.73;;;;;;;;;;5045270;28;20116;-65
2023/03/19 07:08:59;;;;;;;19.73;15.32;;;;;;;;;;5056569;28;20067;-65
2023/03/19 07:11:24;;;;;;;15.82;14.00;;;;;;;;;;5054708;28;20028;-67
2023/03/19 07:13:49;;;;;;;16.38;14.68;;;;;;;;;;5047864;28;20040;-65
2023/03/19 07:16:14;;;;;;;15.95;14.23;;;;;;;;;;5055301;28;20031;-65
2023/03/19 07:18:40;;;;;;;21.88;14.77;;;;;;;;;;5055860;28;20028;-67
2023/03/19 07:21:05;;;;;;;17.80;15.90;;;;;;;;;;5055772;28;20459;-66
2023/03/19 07:23:30;;;;;;;16.15;14.18;;;;;;;;;;5057767;28;20029;-67
2023/03/19 07:25:56;;;;;;;17.65;15.63;;;;;;;;;;5056352;28;20049;-67
2023/03/19 07:28:21;;;;;;;17.63;13.10;;;;;;;;;;5058975;28;20498;-67
2023/03/19 07:30:47;;;;;;;17.42;13.50;;;;;;;;;;5054431;28;20107;-67
2023/03/19 07:33:12;;;;;;;15.82;14.13;;;;;;;;;;5054773;28;20041;-67
2023/03/19 07:35:37;;;;;;;18.40;14.02;;;;;;;;;;5049378;28;20029;-67
2023/03/19 07:38:02;;;;;;;15.93;14.32;;;;;;;;;;5047969;28;20063;-67
2023/03/19 07:40:28;;;;;;;16.20;13.90;;;;;;;;;;5039329;28;20025;-67
2023/03/19 07:42:53;;;;;;;17.23;14.82;;;;;;;;;;5045588;28;20070;-67
2023/03/19 07:45:18;;;;;;;15.95;13.25;;;;;;;;;;5048100;28;20017;-67
2023/03/19 07:47:44;;;;;;;15.48;13.90;;;;;;;;;;5048873;28;20059;-67
2023/03/19 07:50:09;;;;;;;19.98;14.75;;;;;;;;;;5045999;28;20025;-67
2023/03/19 07:52:35;;;;;;;18.45;13.90;;;;;;;;;;5048868;28;20025;-66
2023/03/19 07:55:00;;;;;;;20.40;15.32;;;;;;;;;;5039538;28;20029;-66
2023/03/19 07:57:25;;;;;;;19.23;13.13;;;;;;;;;;5048467;28;20471;-67
2023/03/19 07:59:51;;;;;;;14.35;12.85;;;;;;;;;;5047943;28;20360;-67
2023/03/19 08:02:16;;;;;;;15.90;14.00;;;;;;;;;;5044082;28;20083;-66
2023/03/19 08:04:42;;;;;;;16.50;14.20;;;;;;;;;;5048149;28;20032;-67
2023/03/19 08:07:09;;;;;;;16.15;13.10;;;;;;;;;;5044075;28;20084;-67
2023/03/19 08:09:36;;;;;;;16.92;13.48;;;;;;;;;;5051316;28;20025;-68
2023/03/19 08:12:01;;;;;;;22.40;13.82;;;;;;;;;;5044140;28;20476;-67
2023/03/19 08:14:26;;;;;;;14.10;12.63;;;;;;;;;;5045201;28;20059;-67
2023/03/19 08:16:52;;;;;;;16.88;12.82;;;;;;;;;;5044325;28;20034;-64
2023/03/19 08:19:17;;;;;;;17.50;13.13;;;;;;;;;;5046649;28;20025;-66
2023/03/19 08:21:42;;;;;;;14.60;11.77;;;;;;;;;;5046713;28;20028;-66
2023/03/19 08:24:08;;;;;;;16.58;12.80;;;;;;;;;;5040826;28;20029;-66
2023/03/19 08:26:33;;;;;;;13.88;12.45;;;;;;;;;;5038037;28;20038;-66
2023/03/19 08:28:59;;;;;;;12.80;11.40;;;;;;;;;;5047594;28;20036;-66
2023/03/19 08:31:24;;;;;;;11.38;10.10;;;;;;;;;;5045210;28;20059;-66
2023/03/19 08:33:50;;;;;;;9.85;8.32;;;;;;;;;;5052993;28;20044;-66
2023/03/19 08:36:15;;;;;;;13.40;9.40;;;;;;;;;;5053153;28;20021;-66
2023/03/19 08:38:41;;;;;;;7.78;6.97;;;;;;;;;;5043744;28;20078;-66
2023/03/19 08:41:06;;;;;;;9.52;7.13;;;;;;;;;;5036663;28;20391;-66
2023/03/19 08:43:32;;;;;;;9.30;7.43;;;;;;;;;;5053528;28;20025;-66
2023/03/19 08:45:58;;;;;;;9.95;6.43;;;;;;;;;;5053059;28;20040;-66
2023/03/19 08:48:24;;;;;;;7.93;6.18;;;;;;;;;;5051713;28;20017;-66
2023/03/19 08:51:01;;;;;;;9.90;6.55;;;;;;;;;;5052692;28;20439;-66
2023/03/19 08:53:26;;;;;;;5.70;4.20;;;;;;;;;;5050725;28;20111;-66
2023/03/19 08:55:53;;;;;;;6.53;4.63;;;;;;;;;;5043287;28;20413;-66
2023/03/19 08:58:18;;;;;;;5.47;4.25;;;;;;;;;;5047802;28;20346;-66
2023/03/19 09:00:44;;;;;;;7.95;4.43;;;;;;;;;;5053543;28;20032;-66
2023/03/19 09:03:09;;;;;;;9.10;4.55;;;;;;;;;;5036763;28;20017;-66
2023/03/19 09:05:34;;;;;;;7.10;4.97;;;;;;;;;;5043278;28;20032;-66
2023/03/19 09:08:00;;;;;;;6.03;4.43;;;;;;;;;;5051675;28;20540;-66
2023/03/19 09:10:25;;;;;;;7.07;5.00;;;;;;;;;;5053012;28;20025;-66
2023/03/19 09:12:51;;;;;;;6.10;5.22;;;;;;;;;;5038960;28;20106;-66
2023/03/19 09:15:16;;;;;;;7.63;5.53;;;;;;;;;;5051974;28;20112;-66
2023/03/19 09:17:41;;;;;;;11.40;4.82;;;;;;;;;;5035713;28;20453;-66
2023/03/19 09:20:07;;;;;;;7.38;5.15;;;;;;;;;;5039187;28;20076;-66
2023/03/19 09:22:32;;;;;;;6.45;3.72;;;;;;;;;;5033407;28;20495;-66
2023/03/19 09:24:57;;;;;;;7.40;3.72;;;;;;;;;;5033885;28;20494;-66
2023/03/19 09:27:23;;;;;;;4.68;3.38;;;;;;;;;;5048349;28;20031;-66
2023/03/19 09:29:48;;;;;;;5.93;3.60;;;;;;;;;;5032519;28;20395;-66
2023/03/19 09:32:13;;;;;;;6.40;3.63;;;;;;;;;;5045142;28;20088;-66
2023/03/19 09:34:39;;;;;;;7.38;3.40;;;;;;;;;;5032840;28;20022;-66
2023/03/19 09:37:05;;;;;;;5.80;3.65;;;;;;;;;;5042657;28;20029;-66
2023/03/19 09:39:31;;;;;;;7.88;3.50;;;;;;;;;;5046113;28;20199;-66
2023/03/19 09:42:13;;;;;;;5.05;3.67;;;;;;;;;;5043442;28;20112;-66
2023/03/19 09:44:42;;;;;;;5.60;3.63;;;;;;;;;;5033838;28;20029;-66
2023/03/19 09:47:08;;;;;;;7.50;3.70;;;;;;;;;;5038757;28;20037;-66
2023/03/19 09:49:42;;;;;;;5.78;4.32;;;;;;;;;;5033742;28;20029;-66
2023/03/19 09:52:16;;;;;;;5.95;3.83;;;;;;;;;;5040769;28;20029;-66
2023/03/19 09:54:45;;;;;;;6.75;4.20;;;;;;;;;;5035621;28;20025;-66
2023/03/19 09:57:10;;;;;;;7.20;4.30;;;;;;;;;;5035544;28;20031;-66
2023/03/19 09:59:36;;;;;;;5.78;3.88;;;;;;;;;;5036691;28;20025;-66
2023/03/19 10:02:20;;;;;;;9.55;4.80;;;;;;;;;;5035672;28;20108;-66
2023/03/19 10:04:59;;;;;;;5.68;3.78;;;;;;;;;;5039485;28;20116;-66
2023/03/19 10:07:34;;;;;;;6.93;4.15;;;;;;;;;;5032784;28;20029;-66
2023/03/19 10:10:09;;;;;;;6.47;4.50;;;;;;;;;;5046529;28;20031;-65
2023/03/19 10:12:34;;;;;;;5.97;4.38;;;;;;;;;;5038108;28;20033;-65
2023/03/19 10:15:20;;;;;;;7.88;3.97;;;;;;;;;;5049766;28;20043;-65
2023/03/19 10:17:45;;;;;;;12.55;4.63;;;;;;;;;;5033761;28;20468;-65
2023/03/19 10:20:29;;;;;;;5.35;4.28;;;;;;;;;;5042907;28;20040;-65
2023/03/19 10:23:00;;;;;;;6.83;4.97;;;;;;;;;;5044796;28;20394;-66
2023/03/19 10:25:28;;;;;;;8.48;6.22;;;;;;;;;;5044341;28;20025;-66
2023/03/19 10:28:06;;;;;;;8.63;5.97;;;;;;;;;;5039165;28;20045;-66
2023/03/19 10:30:32;;;;;;;6.80;6.10;;;;;;;;;;5049513;28;20025;-66
2023/03/19 10:33:10;;;;;;;6.75;5.85;;;;;;;;;;5049011;28;20033;-66
2023/03/19 10:35:42;;;;;;;7.32;5.50;;;;;;;;;;5048604;28;20021;-66
2023/03/19 10:38:23;;;;;;;6.85;5.18;;;;;;;;;;5041668;28;20076;-66
2023/03/19 10:41:07;;;;;;;9.38;6.90;;;;;;;;;;5032908;28;20104;-66
2023/03/19 10:43:34;;;;;;;8.68;5.95;;;;;;;;;;5039458;28;20630;-66
2023/03/19 10:45:59;;;;;;;7.40;6.35;;;;;;;;;;5038704;28;20037;-66
2023/03/19 10:48:25;;;;;;;8.10;6.43;;;;;;;;;;5039373;28;20368;-65
2023/03/19 10:50:58;;;;;;;10.90;7.15;;;;;;;;;;5038203;28;20064;-65
2023/03/19 10:53:32;;;;;;;8.80;6.85;;;;;;;;;;5039890;28;20033;-63
2023/03/19 10:56:00;;;;;;;11.27;6.80;;;;;;;;;;5048015;28;20104;-63
2023/03/19 10:58:26;;;;;;;9.82;6.57;;;;;;;;;;5044530;28;20017;-64
2023/03/19 11:00:56;;;;;;;10.10;6.95;;;;;;;;;;5042081;28;20061;-66
2023/03/19 11:03:35;;;;;;;7.18;6.22;;;;;;;;;;5035827;28;20108;-65
2023/03/19 11:06:06;;;;;;;11.40;7.00;;;;;;;;;;5048237;28;20425;-65
2023/03/19 11:08:38;;;;;;;11.48;8.52;;;;;;;;;;5044054;28;20106;-66
2023/03/19 11:11:03;;;;;;;9.10;7.15;;;;;;;;;;5053549;28;20021;-68
2023/03/19 11:13:29;;;;;;;8.55;5.60;;;;;;;;;;5050663;28;20037;-65
2023/03/19 11:15:57;;;;;;;9.23;6.82;;;;;;;;;;5048337;28;20025;-65
2023/03/19 11:18:23;;;;;;;9.57;6.78;;;;;;;;;;5044947;28;20017;-63
2023/03/19 11:20:54;;;;;;;9.90;6.07;;;;;;;;;;5044523;28;20083;-64
2023/03/19 11:23:20;;;;;;;7.07;5.57;;;;;;;;;;5051317;28;20029;-64
2023/03/19 11:25:46;;;;;;;5.38;4.30;;;;;;;;;;5051718;28;20398;-65
2023/03/19 11:28:13;;;;;;;7.15;5.15;;;;;;;;;;5045710;28;20169;-65
2023/03/19 11:30:57;;;;;;;8.35;5.40;;;;;;;;;;5048547;28;20021;-65
2023/03/19 11:33:43;;;;;;;10.40;6.00;;;;;;;;;;5052258;28;20031;-66
2023/03/19 11:36:12;;;;;;;8.85;5.47;;;;;;;;;;5049895;28;20095;-66
2023/03/19 11:38:57;;;;;;;5.88;4.13;;;;;;;;;;5039899;28;20104;-64
2023/03/19 11:41:22;;;;;;;5.78;4.35;;;;;;;;;;5043226;28;20093;-64
2023/03/19 11:44:00;;;;;;;7.65;4.50;;;;;;;;;;5042964;28;20107;-67
2023/03/19 11:46:25;;;;;;;6.82;4.90;;;;;;;;;;5046548;28;20029;-63
2023/03/19 11:48:50;;;;;;;6.93;4.68;;;;;;;;;;5049706;28;20060;-64
2023/03/19 11:51:27;;;;;;;7.40;4.07;;;;;;;;;;5050046;28;20075;-64
2023/03/19 11:53:52;;;;;;;8.73;4.60;;;;;;;;;;5043885;28;20124;-66
2023/03/19 11:56:28;;;;;;;6.65;4.55;;;;;;;;;;5046409;28;20159;-65
2023/03/19 11:59:11;;;;;;;5.70;4.47;;;;;;;;;;5045450;28;20040;-65
2023/03/19 12:01:40;;;;;;;13.07;5.82;;;;;;;;;;5042482;28;20093;-65
2023/03/19 12:04:15;;;;;;;9.23;5.47;;;;;;;;;;5050311;28;20021;-67
2023/03/19 12:06:40;;;;;;;9.18;5.57;;;;;;;;;;5051592;28;20029;-65
2023/03/19 12:09:11;;;;;;;8.40;5.17;;;;;;;;;;5051870;28;20159;-65
2023/03/19 12:11:47;;;;;;;8.65;4.72;;;;;;;;;;5052961;28;20638;-67
2023/03/19 12:14:21;;;;;;;6.82;4.55;;;;;;;;;;5051799;28;20029;-67
2023/03/19 12:16:47;;;;;;;5.38;3.67;;;;;;;;;;5040732;28;20086;-67
2023/03/19 12:19:12;;;;;;;5.28;3.90;;;;;;;;;;5034754;28;20120;-67
2023/03/19 12:21:48;;;;;;;4.90;3.20;;;;;;;;;;5049066;28;20063;-67
2023/03/19 12:24:20;;;;;;;6.03;3.45;;;;;;;;;;5049761;28;20029;-67
2023/03/19 12:26:48;;;;;;;5.43;3.03;;;;;;;;;;5049302;28;20028;-67
2023/03/19 12:29:37;;;;;;;5.40;2.97;;;;;;;;;;5049269;28;20419;-67
2023/03/19 12:32:20;;;;;;;4.95;1.98;;;;;;;;;;5047675;28;20494;-67
2023/03/19 12:34:57;;;;;;;3.95;2.25;;;;;;;;;;5053316;28;20036;-67
2023/03/19 12:37:27;;;;;;;5.60;2.42;;;;;;;;;;5052461;28;20079;-67
2023/03/19 12:40:13;;;;;;;4.85;2.28;;;;;;;;;;5048835;28;20487;-66
2023/03/19 12:42:39;;;;;;;4.85;2.88;;;;;;;;;;5049891;28;20116;-66
2023/03/19 12:45:11;;;;;;;3.75;2.22;;;;;;;;;;5051780;28;20029;-66
2023/03/19 12:47:39;;;;;;;4.63;3.00;;;;;;;;;;5049568;28;20071;-66
2023/03/19 12:50:10;;;;;;;6.82;3.35;;;;;;;;;;5053169;28;20060;-66
2023/03/19 12:52:35;;;;;;;7.35;3.28;;;;;;;;;;5044400;28;20032;-67
2023/03/19 12:55:08;;;;;;;5.38;2.70;;;;;;;;;;5051250;28;20017;-66
2023/03/19 12:57:40;;;;;;;5.68;2.33;;;;;;;;;;5046450;28;20396;-66
2023/03/19 13:00:19;;;;;;;3.65;2.40;;;;;;;;;;5042281;28;20368;-66
2023/03/19 13:02:47;;;;;;;6.60;2.47;;;;;;;;;;5045876;28;20025;-66
2023/03/19 13:05:24;;;;;;;4.40;2.63;;;;;;;;;;5037563;28;20029;-66
2023/03/19 13:07:55;;;;;;;4.35;2.60;;;;;;;;;;5027345;28;20719;-67
2023/03/19 13:10:21;;;;;;;3.95;2.90;;;;;;;;;;5038461;28;20041;-67
2023/03/19 13:12:47;;;;;;;4.68;2.63;;;;;;;;;;5043606;28;20113;-67
2023/03/19 13:15:13;;;;;;;7.20;3.10;;;;;;;;;;5046924;28;20033;-67
2023/03/19 13:17:44;;;;;;;4.88;2.83;;;;;;;;;;5051801;28;20024;-67
2023/03/19 13:20:22;;;;;;;6.90;3.08;;;;;;;;;;5050928;28;20447;-67
2023/03/19 13:22:54;;;;;;;9.05;4.38;;;;;;;;;;5051804;28;20510;-67
2023/03/19 13:25:22;;;;;;;5.90;3.47;;;;;;;;;;5052656;28;20017;-67
2023/03/19 13:27:54;;;;;;;4.55;2.97;;;;;;;;;;5049768;28;20029;-67
2023/03/19 13:30:20;;;;;;;6.05;3.60;;;;;;;;;;5051911;28;20462;-68
2023/03/19 13:32:50;;;;;;;6.47;3.58;;;;;;;;;;5052131;28;20031;-67
2023/03/19 13:35:21;;;;;;;5.38;3.05;;;;;;;;;;5046457;28;20345;-67
2023/03/19 13:37:49;;;;;;;6.75;2.75;;;;;;;;;;5042279;28;20082;-65
2023/03/19 13:40:33;;;;;;;8.18;3.50;;;;;;;;;;5045062;28;20025;-64
2023/03/19 13:42:58;;;;;;;4.10;2.57;;;;;;;;;;5047810;28;20048;-67
2023/03/19 13:45:30;;;;;;;5.53;3.15;;;;;;;;;;5052809;28;20052;-67
2023/03/19 13:47:57;;;;;;;5.05;2.10;;;;;;;;;;5045563;28;20057;-67
2023/03/19 13:50:24;;;;;;;3.75;2.03;;;;;;;;;;5043668;28;20029;-67
2023/03/19 13:52:52;;;;;;;7.05;2.22;;;;;;;;;;5042153;28;20036;-67
2023/03/19 13:55:21;;;;;;;4.30;2.10;;;;;;;;;;5043395;28;20025;-67
2023/03/19 13:58:00;;;;;;;3.83;1.80;;;;;;;;;;5048742;28;20026;-67
2023/03/19 14:00:44;;;;;;;4.03;1.88;;;;;;;;;;5038447;28;20036;-67
2023/03/19 14:03:18;;;;;;;4.67;2.13;;;;;;;;;;5037315;28;20017;-67
2023/03/19 14:05:45;;;;;;;5.50;2.00;;;;;;;;;;5050361;28;20029;-67
2023/03/19 14:08:17;;;;;;;4.03;1.70;;;;;;;;;;5038372;28;20033;-67
2023/03/19 14:10:46;;;;;;;4.55;1.60;;;;;;;;;;5046398;28;20063;-67
2023/03/19 14:13:18;;;;;;;4.85;1.77;;;;;;;;;;5034945;28;20176;-67
2023/03/19 14:15:47;;;;;;;4.80;2.25;;;;;;;;;;5048664;28;20534;-67
2023/03/19 14:18:17;;;;;;;7.22;2.53;;;;;;;;;;5049619;28;20813;-67
2023/03/19 14:20:44;;;;;;;8.73;2.05;;;;;;;;;;5048472;28;20032;-67
2023/03/19 14:23:23;;;;;;;6.70;2.40;;;;;;;;;;5010449;28;20026;-67
2023/03/19 14:26:08;;;;;;;4.78;1.80;;;;;;;;;;5030548;28;20025;-70
2023/03/19 14:28:35;;;;;;;6.00;2.33;;;;;;;;;;5032752;28;20029;-63
2023/03/19 14:31:01;;;;;;;4.28;2.22;;;;;;;;;;5026696;28;20435;-63
2023/03/19 14:33:42;;;;;;;4.70;2.17;;;;;;;;;;5048631;28;20029;-62
2023/03/19 14:36:11;;;;;;;7.07;2.42;;;;;;;;;;5048863;28;20047;-62